sensor_id;sensor_type;location;lat;lon;timestamp;temperature;humidity
5743;DHT22;2896;53.500;10.020;2023-05-29T00:02:25;12.30;99.90
5743;DHT22;2896;53.500;10.020;2023-05-29T00:04:52;12.20;99.90
5743;DHT22;2896;53.500;10.020;2023-05-29T00:07:19;12.20;99.90
5743;DHT22;2896;53.500;10.020;2023-05-29T00:09:47;12.20;99.90
5743;DHT22;2896;53.500;10.020;2023-05-29T00:12:13;12.20;99.90
5743;DHT22;2896;53.500;10.020;2023-05-29T00:14:40;12.30;99.90
5743;DHT22;2896;53.500;10.020;2023-05-29T00:17:07;12.30;99.90
5743;DHT22;2896;53.500;10.020;2023-05-29T00:19:34;12.20;99.90
5743;DHT22;2896;53.500;10.020;2023-05-29T00:22:01;12.20;99.90
5743;DHT22;2896;53.500;10.020;2023-05-29T00:24:28;12.10;99.90
5743;DHT22;2896;53.500;10.020;2023-05-29T00:26:55;12.00;99.90
5743;DHT22;2896;53.500;10.020;2023-05-29T00:29:22;12.00;99.90
5743;DHT22;2896;53.500;10.020;2023-05-29T00:31:49;12.00;99.90
5743;DHT22;2896;53.500;10.020;2023-05-29T00:34:18;12.00;99.90
5743;DHT22;2896;53.500;10.020;2023-05-29T00:36:45;12.00;99.90
5743;DHT22;2896;53.500;10.020;2023-05-29T00:39:13;11.90;99.90
5743;DHT22;2896;53.500;10.020;2023-05-29T00:41:39;11.90;99.90
5743;DHT22;2896;53.500;10.020;2023-05-29T00:44:07;12.00;99.90
5743;DHT22;2896;53.500;10.020;2023-05-29T00:46:34;11.90;99.90
5743;DHT22;2896;53.500;10.020;2023-05-29T00:49:02;11.90;99.90
5743;DHT22;2896;53.500;10.020;2023-05-29T00:51:31;11.80;99.90
5743;DHT22;2896;53.500;10.020;2023-05-29T00:53:58;11.80;99.90
5743;DHT22;2896;53.500;10.020;2023-05-29T00:56:26;11.70;99.90
5743;DHT22;2896;53.500;10.020;2023-05-29T00:58:53;11.70;99.90
5743;DHT22;2896;53.500;10.020;2023-05-29T01:01:21;11.60;99.90
5743;DHT22;2896;53.500;10.020;2023-05-29T01:03:48;11.60;99.90
5743;DHT22;2896;53.500;10.020;2023-05-29T01:06:15;11.50;99.90
5743;DHT22;2896;53.500;10.020;2023-05-29T01:08:41;11.50;99.90
5743;DHT22;2896;53.500;10.020;2023-05-29T01:11:14;11.50;99.90
5743;DHT22;2896;53.500;10.020;2023-05-29T01:13:46;11.40;99.90
5743;DHT22;2896;53.500;10.020;2023-05-29T01:16:18;11.30;99.90
5743;DHT22;2896;53.500;10.020;2023-05-29T01:18:54;11.20;99.90
5743;DHT22;2896;53.500;10.020;2023-05-29T01:21:32;11.20;99.90
5743;DHT22;2896;53.500;10.020;2023-05-29T01:24:14;11.20;99.90
5743;DHT22;2896;53.500;10.020;2023-05-29T01:26:47;11.10;99.90
5743;DHT22;2896;53.500;10.020;2023-05-29T01:29:18;11.10;99.90
5743;DHT22;2896;53.500;10.020;2023-05-29T01:31:45;10.90;99.90
5743;DHT22;2896;53.500;10.020;2023-05-29T01:34:12;10.80;99.90
5743;DHT22;2896;53.500;10.020;2023-05-29T01:36:39;10.70;99.90
5743;DHT22;2896;53.500;10.020;2023-05-29T01:39:06;10.80;99.90
5743;DHT22;2896;53.500;10.020;2023-05-29T01:41:34;10.70;99.90
5743;DHT22;2896;53.500;10.020;2023-05-29T01:44:05;10.70;99.90
5743;DHT22;2896;53.500;10.020;2023-05-29T01:46:34;10.50;99.90
5743;DHT22;2896;53.500;10.020;2023-05-29T01:49:01;10.40;99.90
5743;DHT22;2896;53.500;10.020;2023-05-29T01:51:28;10.40;99.90
5743;DHT22;2896;53.500;10.020;2023-05-29T01:53:57;10.30;99.90
5743;DHT22;2896;53.500;10.020;2023-05-29T01:56:24;10.30;99.90
5743;DHT22;2896;53.500;10.020;2023-05-29T01:58:52;10.30;99.90
5743;DHT22;2896;53.500;10.020;2023-05-29T02:01:21;9.80;99.90
5743;DHT22;2896;53.500;10.020;2023-05-29T02:03:48;10.10;99.90
5743;DHT22;2896;53.500;10.020;2023-05-29T02:06:15;10.10;99.90
5743;DHT22;2896;53.500;10.020;2023-05-29T02:08:41;10.10;99.90
5743;DHT22;2896;53.500;10.020;2023-05-29T02:11:08;10.10;99.90
5743;DHT22;2896;53.500;10.020;2023-05-29T02:13:35;9.90;99.90
5743;DHT22;2896;53.500;10.020;2023-05-29T02:16:01;9.90;99.90
5743;DHT22;2896;53.500;10.020;2023-05-29T02:18:29;9.90;99.90
5743;DHT22;2896;53.500;10.020;2023-05-29T02:20:56;9.90;99.90
5743;DHT22;2896;53.500;10.020;2023-05-29T02:23:23;9.80;99.90
5743;DHT22;2896;53.500;10.020;2023-05-29T02:25:51;10.00;99.90
5743;DHT22;2896;53.500;10.020;2023-05-29T02:28:18;9.70;99.90
5743;DHT22;2896;53.500;10.020;2023-05-29T02:30:44;9.60;99.90
5743;DHT22;2896;53.500;10.020;2023-05-29T02:33:11;9.60;99.90
5743;DHT22;2896;53.500;10.020;2023-05-29T02:35:39;9.60;99.90
5743;DHT22;2896;53.500;10.020;2023-05-29T02:38:05;9.40;99.90
5743;DHT22;2896;53.500;10.020;2023-05-29T02:40:32;9.40;99.90
5743;DHT22;2896;53.500;10.020;2023-05-29T02:42:58;9.40;99.90
5743;DHT22;2896;53.500;10.020;2023-05-29T02:45:25;9.40;99.90
5743;DHT22;2896;53.500;10.020;2023-05-29T02:47:52;9.40;99.90
5743;DHT22;2896;53.500;10.020;2023-05-29T02:50:19;9.30;99.90
5743;DHT22;2896;53.500;10.020;2023-05-29T02:52:47;9.20;99.90
5743;DHT22;2896;53.500;10.020;2023-05-29T02:55:13;9.20;99.90
5743;DHT22;2896;53.500;10.020;2023-05-29T02:57:40;9.30;99.90
5743;DHT22;2896;53.500;10.020;2023-05-29T03:00:08;9.20;99.90
5743;DHT22;2896;53.500;10.020;2023-05-29T03:02:34;9.20;99.90
5743;DHT22;2896;53.500;10.020;2023-05-29T03:05:01;9.20;99.90
5743;DHT22;2896;53.500;10.020;2023-05-29T03:07:28;9.10;99.90
5743;DHT22;2896;53.500;10.020;2023-05-29T03:09:56;9.10;99.90
5743;DHT22;2896;53.500;10.020;2023-05-29T03:12:23;9.10;99.90
5743;DHT22;2896;53.500;10.020;2023-05-29T03:14:50;9.00;99.90
5743;DHT22;2896;53.500;10.020;2023-05-29T03:17:16;9.00;99.90
5743;DHT22;2896;53.500;10.020;2023-05-29T03:19:43;9.10;99.90
5743;DHT22;2896;53.500;10.020;2023-05-29T03:22:10;9.10;99.90
5743;DHT22;2896;53.500;10.020;2023-05-29T03:24:37;9.00;99.90
5743;DHT22;2896;53.500;10.020;2023-05-29T03:27:05;9.00;99.90
5743;DHT22;2896;53.500;10.020;2023-05-29T03:29:32;8.90;99.90
5743;DHT22;2896;53.500;10.020;2023-05-29T03:31:58;8.90;99.90
5743;DHT22;2896;53.500;10.020;2023-05-29T03:34:25;9.10;99.90
5743;DHT22;2896;53.500;10.020;2023-05-29T03:36:53;9.00;99.90
5743;DHT22;2896;53.500;10.020;2023-05-29T03:39:19;8.90;99.90
5743;DHT22;2896;53.500;10.020;2023-05-29T03:41:46;9.00;99.90
5743;DHT22;2896;53.500;10.020;2023-05-29T03:44:14;9.00;99.90
5743;DHT22;2896;53.500;10.020;2023-05-29T03:46:40;9.10;99.90
5743;DHT22;2896;53.500;10.020;2023-05-29T03:49:07;9.10;99.90
5743;DHT22;2896;53.500;10.020;2023-05-29T03:51:34;9.00;99.90
5743;DHT22;2896;53.500;10.020;2023-05-29T03:54:00;9.00;99.90
5743;DHT22;2896;53.500;10.020;2023-05-29T03:56:27;9.00;99.90
5743;DHT22;2896;53.500;10.020;2023-05-29T03:58:54;9.10;99.90
5743;DHT22;2896;53.500;10.020;2023-05-29T04:01:22;9.10;99.90
5743;DHT22;2896;53.500;10.020;2023-05-29T04:03:48;9.20;99.90
5743;DHT22;2896;53.500;10.020;2023-05-29T04:06:15;10.70;99.90
5743;DHT22;2896;53.500;10.020;2023-05-29T04:08:42;9.10;99.90
5743;DHT22;2896;53.500;10.020;2023-05-29T04:11:08;9.10;99.90
5743;DHT22;2896;53.500;10.020;2023-05-29T04:13:37;9.10;99.90
5743;DHT22;2896;53.500;10.020;2023-05-29T04:16:04;9.20;99.90
5743;DHT22;2896;53.500;10.020;2023-05-29T04:18:32;9.20;99.90
5743;DHT22;2896;53.500;10.020;2023-05-29T04:20:59;9.20;99.90
5743;DHT22;2896;53.500;10.020;2023-05-29T04:23:26;9.20;99.90
5743;DHT22;2896;53.500;10.020;2023-05-29T04:25:52;9.20;99.90
5743;DHT22;2896;53.500;10.020;2023-05-29T04:28:19;9.30;99.90
5743;DHT22;2896;53.500;10.020;2023-05-29T04:30:47;9.30;99.90
5743;DHT22;2896;53.500;10.020;2023-05-29T04:33:13;9.40;99.90
5743;DHT22;2896;53.500;10.020;2023-05-29T04:35:41;9.40;99.90
5743;DHT22;2896;53.500;10.020;2023-05-29T04:38:08;9.50;99.90
5743;DHT22;2896;53.500;10.020;2023-05-29T04:40:35;9.50;99.90
5743;DHT22;2896;53.500;10.020;2023-05-29T04:43:02;9.40;99.90
5743;DHT22;2896;53.500;10.020;2023-05-29T04:45:30;9.50;99.90
5743;DHT22;2896;53.500;10.020;2023-05-29T04:47:57;9.50;99.90
5743;DHT22;2896;53.500;10.020;2023-05-29T04:50:24;9.60;99.90
5743;DHT22;2896;53.500;10.020;2023-05-29T04:52:52;9.50;99.90
5743;DHT22;2896;53.500;10.020;2023-05-29T04:55:19;9.50;99.90
5743;DHT22;2896;53.500;10.020;2023-05-29T04:57:46;9.70;99.90
5743;DHT22;2896;53.500;10.020;2023-05-29T05:00:13;9.80;99.90
5743;DHT22;2896;53.500;10.020;2023-05-29T05:02:41;10.00;99.90
5743;DHT22;2896;53.500;10.020;2023-05-29T05:05:08;9.90;99.90
5743;DHT22;2896;53.500;10.020;2023-05-29T05:07:35;10.00;99.90
5743;DHT22;2896;53.500;10.020;2023-05-29T05:10:04;10.00;99.90
5743;DHT22;2896;53.500;10.020;2023-05-29T05:12:31;10.10;99.90
5743;DHT22;2896;53.500;10.020;2023-05-29T05:14:58;10.20;99.90
5743;DHT22;2896;53.500;10.020;2023-05-29T05:17:25;10.30;99.90
5743;DHT22;2896;53.500;10.020;2023-05-29T05:19:52;10.40;99.90
5743;DHT22;2896;53.500;10.020;2023-05-29T05:22:19;10.50;99.90
5743;DHT22;2896;53.500;10.020;2023-05-29T05:24:45;10.50;99.90
5743;DHT22;2896;53.500;10.020;2023-05-29T05:27:13;10.50;99.90
5743;DHT22;2896;53.500;10.020;2023-05-29T05:29:40;10.60;99.90
5743;DHT22;2896;53.500;10.020;2023-05-29T05:32:07;10.60;99.90
5743;DHT22;2896;53.500;10.020;2023-05-29T05:34:33;10.60;99.90
5743;DHT22;2896;53.500;10.020;2023-05-29T05:37:00;10.70;99.90
5743;DHT22;2896;53.500;10.020;2023-05-29T05:39:28;10.80;99.90
5743;DHT22;2896;53.500;10.020;2023-05-29T05:41:54;10.80;99.90
5743;DHT22;2896;53.500;10.020;2023-05-29T05:44:22;10.80;99.90
5743;DHT22;2896;53.500;10.020;2023-05-29T05:46:49;10.90;99.90
5743;DHT22;2896;53.500;10.020;2023-05-29T05:49:15;10.80;99.90
5743;DHT22;2896;53.500;10.020;2023-05-29T05:51:42;11.00;99.90
5743;DHT22;2896;53.500;10.020;2023-05-29T05:54:09;11.00;99.90
5743;DHT22;2896;53.500;10.020;2023-05-29T05:56:35;11.20;99.90
5743;DHT22;2896;53.500;10.020;2023-05-29T05:59:02;11.00;99.90
5743;DHT22;2896;53.500;10.020;2023-05-29T06:01:30;11.10;99.90
5743;DHT22;2896;53.500;10.020;2023-05-29T06:03:56;11.20;99.90
5743;DHT22;2896;53.500;10.020;2023-05-29T06:06:23;11.20;99.90
5743;DHT22;2896;53.500;10.020;2023-05-29T06:08:50;11.30;99.90
5743;DHT22;2896;53.500;10.020;2023-05-29T06:11:17;11.30;99.90
5743;DHT22;2896;53.500;10.020;2023-05-29T06:13:43;11.40;99.90
5743;DHT22;2896;53.500;10.020;2023-05-29T06:16:10;11.60;99.90
5743;DHT22;2896;53.500;10.020;2023-05-29T06:18:38;11.80;99.90
5743;DHT22;2896;53.500;10.020;2023-05-29T06:21:05;11.90;99.90
5743;DHT22;2896;53.500;10.020;2023-05-29T06:23:32;11.80;99.90
5743;DHT22;2896;53.500;10.020;2023-05-29T06:26:01;12.00;99.90
5743;DHT22;2896;53.500;10.020;2023-05-29T06:28:28;12.20;99.90
5743;DHT22;2896;53.500;10.020;2023-05-29T06:30:55;12.10;99.90
5743;DHT22;2896;53.500;10.020;2023-05-29T06:33:21;12.40;99.90
5743;DHT22;2896;53.500;10.020;2023-05-29T06:35:50;12.50;99.90
5743;DHT22;2896;53.500;10.020;2023-05-29T06:38:17;11.90;99.90
5743;DHT22;2896;53.500;10.020;2023-05-29T06:40:44;12.00;99.90
5743;DHT22;2896;53.500;10.020;2023-05-29T06:43:10;12.30;99.90
5743;DHT22;2896;53.500;10.020;2023-05-29T06:45:37;12.40;99.90
5743;DHT22;2896;53.500;10.020;2023-05-29T06:48:04;12.30;99.90
5743;DHT22;2896;53.500;10.020;2023-05-29T06:50:31;13.10;99.90
5743;DHT22;2896;53.500;10.020;2023-05-29T06:53:00;12.90;99.90
5743;DHT22;2896;53.500;10.020;2023-05-29T06:55:27;13.10;99.90
5743;DHT22;2896;53.500;10.020;2023-05-29T06:57:53;12.80;99.90
5743;DHT22;2896;53.500;10.020;2023-05-29T07:00:21;13.10;99.90
5743;DHT22;2896;53.500;10.020;2023-05-29T07:02:48;13.20;99.90
5743;DHT22;2896;53.500;10.020;2023-05-29T07:05:16;13.40;99.90
5743;DHT22;2896;53.500;10.020;2023-05-29T07:07:43;13.50;99.90
5743;DHT22;2896;53.500;10.020;2023-05-29T07:10:11;13.60;99.90
5743;DHT22;2896;53.500;10.020;2023-05-29T07:12:37;13.50;99.90
5743;DHT22;2896;53.500;10.020;2023-05-29T07:15:05;13.60;99.90
5743;DHT22;2896;53.500;10.020;2023-05-29T07:17:31;13.80;99.90
5743;DHT22;2896;53.500;10.020;2023-05-29T07:19:58;13.90;99.90
5743;DHT22;2896;53.500;10.020;2023-05-29T07:22:25;12.60;99.90
5743;DHT22;2896;53.500;10.020;2023-05-29T07:24:51;13.40;99.90
5743;DHT22;2896;53.500;10.020;2023-05-29T07:27:19;13.50;99.90
5743;DHT22;2896;53.500;10.020;2023-05-29T07:29:46;13.70;99.90
5743;DHT22;2896;53.500;10.020;2023-05-29T07:32:12;14.00;99.90
5743;DHT22;2896;53.500;10.020;2023-05-29T07:34:39;14.20;99.90
5743;DHT22;2896;53.500;10.020;2023-05-29T07:37:06;14.00;99.90
5743;DHT22;2896;53.500;10.020;2023-05-29T07:39:34;14.30;99.90
5743;DHT22;2896;53.500;10.020;2023-05-29T07:42:01;14.00;99.90
5743;DHT22;2896;53.500;10.020;2023-05-29T07:44:29;14.00;99.90
5743;DHT22;2896;53.500;10.020;2023-05-29T07:46:56;14.10;99.90
5743;DHT22;2896;53.500;10.020;2023-05-29T07:49:23;14.30;99.90
5743;DHT22;2896;53.500;10.020;2023-05-29T07:51:50;14.30;99.90
5743;DHT22;2896;53.500;10.020;2023-05-29T07:54:16;14.50;99.90
5743;DHT22;2896;53.500;10.020;2023-05-29T07:56:45;14.60;99.90
5743;DHT22;2896;53.500;10.020;2023-05-29T07:59:12;14.80;99.90
5743;DHT22;2896;53.500;10.020;2023-05-29T08:01:41;14.90;99.90
5743;DHT22;2896;53.500;10.020;2023-05-29T08:04:08;15.10;99.90
5743;DHT22;2896;53.500;10.020;2023-05-29T08:06:36;14.10;99.90
5743;DHT22;2896;53.500;10.020;2023-05-29T08:09:03;15.10;99.90
5743;DHT22;2896;53.500;10.020;2023-05-29T08:11:30;15.10;99.90
5743;DHT22;2896;53.500;10.020;2023-05-29T08:13:57;15.10;99.90
5743;DHT22;2896;53.500;10.020;2023-05-29T08:16:24;15.20;99.90
5743;DHT22;2896;53.500;10.020;2023-05-29T08:18:54;15.00;99.90
5743;DHT22;2896;53.500;10.020;2023-05-29T08:21:20;15.40;99.90
5743;DHT22;2896;53.500;10.020;2023-05-29T08:23:47;15.60;99.90
5743;DHT22;2896;53.500;10.020;2023-05-29T08:26:13;15.30;99.90
5743;DHT22;2896;53.500;10.020;2023-05-29T08:28:40;15.40;99.90
5743;DHT22;2896;53.500;10.020;2023-05-29T08:31:07;15.60;99.90
5743;DHT22;2896;53.500;10.020;2023-05-29T08:33:33;16.00;99.90
5743;DHT22;2896;53.500;10.020;2023-05-29T08:36:03;16.30;99.90
5743;DHT22;2896;53.500;10.020;2023-05-29T08:38:30;16.70;99.90
5743;DHT22;2896;53.500;10.020;2023-05-29T08:40:57;16.70;99.90
5743;DHT22;2896;53.500;10.020;2023-05-29T08:43:24;17.10;99.90
5743;DHT22;2896;53.500;10.020;2023-05-29T08:45:53;16.90;99.90
5743;DHT22;2896;53.500;10.020;2023-05-29T08:48:23;17.10;99.90
5743;DHT22;2896;53.500;10.020;2023-05-29T08:50:53;17.20;99.90
5743;DHT22;2896;53.500;10.020;2023-05-29T08:53:22;17.60;99.90
5743;DHT22;2896;53.500;10.020;2023-05-29T08:55:51;17.90;99.90
5743;DHT22;2896;53.500;10.020;2023-05-29T08:58:19;18.10;99.90
5743;DHT22;2896;53.500;10.020;2023-05-29T09:00:47;18.30;99.90
5743;DHT22;2896;53.500;10.020;2023-05-29T09:03:13;18.30;99.90
5743;DHT22;2896;53.500;10.020;2023-05-29T09:05:40;18.40;99.90
5743;DHT22;2896;53.500;10.020;2023-05-29T09:08:08;18.70;99.90
5743;DHT22;2896;53.500;10.020;2023-05-29T09:10:38;18.60;99.90
5743;DHT22;2896;53.500;10.020;2023-05-29T09:13:05;18.20;99.90
5743;DHT22;2896;53.500;10.020;2023-05-29T09:15:32;18.60;99.90
5743;DHT22;2896;53.500;10.020;2023-05-29T09:17:59;18.80;99.90
5743;DHT22;2896;53.500;10.020;2023-05-29T09:20:26;18.80;99.90
5743;DHT22;2896;53.500;10.020;2023-05-29T09:22:54;19.00;99.90
5743;DHT22;2896;53.500;10.020;2023-05-29T09:25:22;19.30;99.90
5743;DHT22;2896;53.500;10.020;2023-05-29T09:27:53;19.80;99.90
5743;DHT22;2896;53.500;10.020;2023-05-29T09:30:31;19.70;99.90
5743;DHT22;2896;53.500;10.020;2023-05-29T09:32:59;19.30;99.90
5743;DHT22;2896;53.500;10.020;2023-05-29T09:35:31;19.90;99.90
5743;DHT22;2896;53.500;10.020;2023-05-29T09:37:58;20.30;99.90
5743;DHT22;2896;53.500;10.020;2023-05-29T09:40:25;20.60;99.90
5743;DHT22;2896;53.500;10.020;2023-05-29T09:42:53;20.70;99.90
5743;DHT22;2896;53.500;10.020;2023-05-29T09:45:20;20.90;99.90
5743;DHT22;2896;53.500;10.020;2023-05-29T09:47:50;20.70;99.90
5743;DHT22;2896;53.500;10.020;2023-05-29T09:50:19;21.00;99.90
5743;DHT22;2896;53.500;10.020;2023-05-29T09:52:46;21.20;99.90
5743;DHT22;2896;53.500;10.020;2023-05-29T09:55:18;21.10;99.90
5743;DHT22;2896;53.500;10.020;2023-05-29T09:57:47;20.40;99.90
5743;DHT22;2896;53.500;10.020;2023-05-29T10:00:17;20.80;99.90
5743;DHT22;2896;53.500;10.020;2023-05-29T10:02:45;20.80;99.90
5743;DHT22;2896;53.500;10.020;2023-05-29T10:05:11;20.30;99.90
5743;DHT22;2896;53.500;10.020;2023-05-29T10:07:43;20.70;99.90
5743;DHT22;2896;53.500;10.020;2023-05-29T10:10:12;20.50;99.90
5743;DHT22;2896;53.500;10.020;2023-05-29T10:12:44;20.30;99.90
5743;DHT22;2896;53.500;10.020;2023-05-29T10:15:12;20.90;99.90
5743;DHT22;2896;53.500;10.020;2023-05-29T10:17:49;20.50;99.90
5743;DHT22;2896;53.500;10.020;2023-05-29T10:20:17;21.00;99.90
5743;DHT22;2896;53.500;10.020;2023-05-29T10:22:49;20.90;99.90
5743;DHT22;2896;53.500;10.020;2023-05-29T10:25:18;20.90;99.90
5743;DHT22;2896;53.500;10.020;2023-05-29T10:27:47;21.40;99.90
5743;DHT22;2896;53.500;10.020;2023-05-29T10:30:20;21.40;99.90
5743;DHT22;2896;53.500;10.020;2023-05-29T10:33:01;21.30;99.90
5743;DHT22;2896;53.500;10.020;2023-05-29T10:35:40;21.20;99.90
5743;DHT22;2896;53.500;10.020;2023-05-29T10:38:12;21.40;99.90
5743;DHT22;2896;53.500;10.020;2023-05-29T10:40:40;21.50;99.90
5743;DHT22;2896;53.500;10.020;2023-05-29T10:43:07;22.00;99.90
5743;DHT22;2896;53.500;10.020;2023-05-29T10:45:49;22.50;99.90
5743;DHT22;2896;53.500;10.020;2023-05-29T10:48:41;22.90;99.90
5743;DHT22;2896;53.500;10.020;2023-05-29T10:51:23;23.30;99.90
5743;DHT22;2896;53.500;10.020;2023-05-29T10:53:51;22.40;99.90
5743;DHT22;2896;53.500;10.020;2023-05-29T10:56:22;22.50;99.90
5743;DHT22;2896;53.500;10.020;2023-05-29T10:58:54;22.80;99.90
5743;DHT22;2896;53.500;10.020;2023-05-29T11:01:22;23.30;99.90
5743;DHT22;2896;53.500;10.020;2023-05-29T11:03:51;23.60;99.90
5743;DHT22;2896;53.500;10.020;2023-05-29T11:06:19;23.70;99.90
5743;DHT22;2896;53.500;10.020;2023-05-29T11:08:47;23.60;99.90
5743;DHT22;2896;53.500;10.020;2023-05-29T11:11:14;22.80;99.90
5743;DHT22;2896;53.500;10.020;2023-05-29T11:13:51;23.30;99.90
5743;DHT22;2896;53.500;10.020;2023-05-29T11:16:20;23.60;99.90
5743;DHT22;2896;53.500;10.020;2023-05-29T11:19:05;23.50;99.90
5743;DHT22;2896;53.500;10.020;2023-05-29T11:21:34;23.90;99.90
5743;DHT22;2896;53.500;10.020;2023-05-29T11:24:05;24.10;99.90
5743;DHT22;2896;53.500;10.020;2023-05-29T11:26:33;23.20;99.90
5743;DHT22;2896;53.500;10.020;2023-05-29T11:29:00;22.90;99.90
5743;DHT22;2896;53.500;10.020;2023-05-29T11:31:28;23.60;99.90
5743;DHT22;2896;53.500;10.020;2023-05-29T11:33:59;23.60;99.90
5743;DHT22;2896;53.500;10.020;2023-05-29T11:36:28;23.30;99.90
5743;DHT22;2896;53.500;10.020;2023-05-29T11:38:56;23.40;99.90
5743;DHT22;2896;53.500;10.020;2023-05-29T11:41:22;24.30;99.90
5743;DHT22;2896;53.500;10.020;2023-05-29T11:43:59;24.30;99.90
5743;DHT22;2896;53.500;10.020;2023-05-29T11:46:27;24.20;99.90
5743;DHT22;2896;53.500;10.020;2023-05-29T11:48:58;24.00;99.90
5743;DHT22;2896;53.500;10.020;2023-05-29T11:51:25;24.50;99.90
5743;DHT22;2896;53.500;10.020;2023-05-29T11:53:53;24.60;99.90
5743;DHT22;2896;53.500;10.020;2023-05-29T11:56:23;24.70;99.90
5743;DHT22;2896;53.500;10.020;2023-05-29T11:58:50;24.90;99.90
5743;DHT22;2896;53.500;10.020;2023-05-29T12:01:20;24.10;99.90
5743;DHT22;2896;53.500;10.020;2023-05-29T12:03:49;24.40;99.90
5743;DHT22;2896;53.500;10.020;2023-05-29T12:06:16;24.60;99.90
5743;DHT22;2896;53.500;10.020;2023-05-29T12:08:42;25.30;99.90
5743;DHT22;2896;53.500;10.020;2023-05-29T12:11:10;25.40;99.90
5743;DHT22;2896;53.500;10.020;2023-05-29T12:13:37;25.60;99.90
5743;DHT22;2896;53.500;10.020;2023-05-29T12:16:05;25.20;99.90
5743;DHT22;2896;53.500;10.020;2023-05-29T12:18:32;25.20;99.90
5743;DHT22;2896;53.500;10.020;2023-05-29T12:20:59;25.90;99.90
5743;DHT22;2896;53.500;10.020;2023-05-29T12:23:27;27.30;99.90
5743;DHT22;2896;53.500;10.020;2023-05-29T12:25:54;25.00;99.90
5743;DHT22;2896;53.500;10.020;2023-05-29T12:28:22;25.30;99.90
5743;DHT22;2896;53.500;10.020;2023-05-29T12:30:49;25.80;99.90
5743;DHT22;2896;53.500;10.020;2023-05-29T12:33:28;25.30;99.90
5743;DHT22;2896;53.500;10.020;2023-05-29T12:36:01;25.40;99.90
5743;DHT22;2896;53.500;10.020;2023-05-29T12:38:28;25.70;99.90
5743;DHT22;2896;53.500;10.020;2023-05-29T12:40:55;25.70;99.90
5743;DHT22;2896;53.500;10.020;2023-05-29T12:43:23;25.90;99.90
5743;DHT22;2896;53.500;10.020;2023-05-29T12:45:54;25.80;99.90
5743;DHT22;2896;53.500;10.020;2023-05-29T12:48:26;26.20;99.90
5743;DHT22;2896;53.500;10.020;2023-05-29T12:50:53;26.70;99.90
5743;DHT22;2896;53.500;10.020;2023-05-29T12:53:20;27.10;99.90
5743;DHT22;2896;53.500;10.020;2023-05-29T12:55:46;27.50;99.90
5743;DHT22;2896;53.500;10.020;2023-05-29T12:58:15;27.30;99.90
5743;DHT22;2896;53.500;10.020;2023-05-29T13:00:44;27.20;99.90
5743;DHT22;2896;53.500;10.020;2023-05-29T13:03:13;27.40;99.90
5743;DHT22;2896;53.500;10.020;2023-05-29T13:05:41;27.10;99.90
5743;DHT22;2896;53.500;10.020;2023-05-29T13:08:07;26.80;99.90
5743;DHT22;2896;53.500;10.020;2023-05-29T13:10:34;26.60;99.90
5743;DHT22;2896;53.500;10.020;2023-05-29T13:13:01;26.80;99.90
5743;DHT22;2896;53.500;10.020;2023-05-29T13:15:28;26.30;99.90
5743;DHT22;2896;53.500;10.020;2023-05-29T13:17:56;26.60;99.90
5743;DHT22;2896;53.500;10.020;2023-05-29T13:20:23;27.00;99.90
5743;DHT22;2896;53.500;10.020;2023-05-29T13:22:50;27.20;99.90
5743;DHT22;2896;53.500;10.020;2023-05-29T13:25:19;26.70;99.90
5743;DHT22;2896;53.500;10.020;2023-05-29T13:27:47;26.60;99.90
5743;DHT22;2896;53.500;10.020;2023-05-29T13:30:15;26.90;99.90
5743;DHT22;2896;53.500;10.020;2023-05-29T13:32:42;27.00;99.90
5743;DHT22;2896;53.500;10.020;2023-05-29T13:35:10;27.10;99.90
5743;DHT22;2896;53.500;10.020;2023-05-29T13:37:38;26.70;99.90
5743;DHT22;2896;53.500;10.020;2023-05-29T13:40:06;26.80;99.90
5743;DHT22;2896;53.500;10.020;2023-05-29T13:42:34;26.50;99.90
5743;DHT22;2896;53.500;10.020;2023-05-29T13:45:01;26.40;99.90
5743;DHT22;2896;53.500;10.020;2023-05-29T13:47:27;26.10;99.90
5743;DHT22;2896;53.500;10.020;2023-05-29T13:49:56;26.70;99.90
5743;DHT22;2896;53.500;10.020;2023-05-29T13:52:25;26.60;99.90
5743;DHT22;2896;53.500;10.020;2023-05-29T13:54:52;27.30;99.90
5743;DHT22;2896;53.500;10.020;2023-05-29T13:57:18;26.90;99.90
5743;DHT22;2896;53.500;10.020;2023-05-29T13:59:45;27.00;99.90
5743;DHT22;2896;53.500;10.020;2023-05-29T14:02:12;27.40;99.90
5743;DHT22;2896;53.500;10.020;2023-05-29T14:04:39;27.40;99.90
5743;DHT22;2896;53.500;10.020;2023-05-29T14:07:08;27.20;99.90
5743;DHT22;2896;53.500;10.020;2023-05-29T14:09:35;27.00;99.90
5743;DHT22;2896;53.500;10.020;2023-05-29T14:12:02;27.00;99.90
5743;DHT22;2896;53.500;10.020;2023-05-29T14:14:29;27.00;99.90
5743;DHT22;2896;53.500;10.020;2023-05-29T14:16:56;27.00;99.90
5743;DHT22;2896;53.500;10.020;2023-05-29T14:19:22;26.80;99.90
5743;DHT22;2896;53.500;10.020;2023-05-29T14:21:50;26.50;99.90
5743;DHT22;2896;53.500;10.020;2023-05-29T14:24:17;26.80;99.90
5743;DHT22;2896;53.500;10.020;2023-05-29T14:26:45;26.80;99.90
5743;DHT22;2896;53.500;10.020;2023-05-29T14:29:12;27.00;99.90
5743;DHT22;2896;53.500;10.020;2023-05-29T14:31:40;26.70;99.90
5743;DHT22;2896;53.500;10.020;2023-05-29T14:34:06;26.50;99.90
5743;DHT22;2896;53.500;10.020;2023-05-29T14:36:33;26.90;99.90
5743;DHT22;2896;53.500;10.020;2023-05-29T14:39:01;26.00;99.90
5743;DHT22;2896;53.500;10.020;2023-05-29T14:41:27;26.90;99.90
5743;DHT22;2896;53.500;10.020;2023-05-29T14:43:55;27.10;99.90
5743;DHT22;2896;53.500;10.020;2023-05-29T14:46:23;27.10;99.90
5743;DHT22;2896;53.500;10.020;2023-05-29T14:48:50;27.10;99.90
5743;DHT22;2896;53.500;10.020;2023-05-29T14:51:16;27.00;99.90
5743;DHT22;2896;53.500;10.020;2023-05-29T14:53:44;26.40;99.90
5743;DHT22;2896;53.500;10.020;2023-05-29T14:56:11;26.50;99.90
5743;DHT22;2896;53.500;10.020;2023-05-29T14:58:37;26.60;99.90
5743;DHT22;2896;53.500;10.020;2023-05-29T15:01:06;26.40;99.90
5743;DHT22;2896;53.500;10.020;2023-05-29T15:03:32;26.50;99.90
5743;DHT22;2896;53.500;10.020;2023-05-29T15:06:00;26.40;99.90
5743;DHT22;2896;53.500;10.020;2023-05-29T15:08:27;26.10;99.90
5743;DHT22;2896;53.500;10.020;2023-05-29T15:10:56;26.20;99.90
5743;DHT22;2896;53.500;10.020;2023-05-29T15:13:23;26.30;99.90
5743;DHT22;2896;53.500;10.020;2023-05-29T15:15:51;26.50;99.90
5743;DHT22;2896;53.500;10.020;2023-05-29T15:18:19;26.40;99.90
5743;DHT22;2896;53.500;10.020;2023-05-29T15:20:45;26.50;99.90
5743;DHT22;2896;53.500;10.020;2023-05-29T15:23:12;26.60;99.90
5743;DHT22;2896;53.500;10.020;2023-05-29T15:25:40;26.20;99.90
5743;DHT22;2896;53.500;10.020;2023-05-29T15:28:07;26.10;99.90
5743;DHT22;2896;53.500;10.020;2023-05-29T15:30:33;25.90;99.90
5743;DHT22;2896;53.500;10.020;2023-05-29T15:33:00;25.60;99.90
5743;DHT22;2896;53.500;10.020;2023-05-29T15:35:34;25.40;99.90
5743;DHT22;2896;53.500;10.020;2023-05-29T15:38:00;24.80;99.90
5743;DHT22;2896;53.500;10.020;2023-05-29T15:40:27;24.80;99.90
5743;DHT22;2896;53.500;10.020;2023-05-29T15:42:54;24.90;99.90
5743;DHT22;2896;53.500;10.020;2023-05-29T15:45:20;25.20;99.90
5743;DHT22;2896;53.500;10.020;2023-05-29T15:47:48;25.60;99.90
5743;DHT22;2896;53.500;10.020;2023-05-29T15:50:15;25.20;99.90
5743;DHT22;2896;53.500;10.020;2023-05-29T15:52:43;25.50;99.90
5743;DHT22;2896;53.500;10.020;2023-05-29T15:55:10;25.20;99.90